Clipper Titan — C6V2055 — position and weather

sailwx.info

Track history (hours):
 
Tides and Currents Weather Stations Pressure Air Temp Water Temp Dewpoint Dewpoint Depression Visibility Wind Speed Wind Dir Waves Ship Positions

Clipper Titan

Last reported at 2015-Feb-27 03:24 UTC. Time now 2015-Feb-27 07:34 UTC.
Position N 37°37' E 025°43'.

; draft 7.1 m.

Type: Cargo ship. MMSI: 311008200.

Date/timePositionNaut miles runAvg speedWind from/ knotsBaromVisibWave heightAir tempDewpointWater temp
2015-Feb-27 03:24N 37°37' E 025°43'6 6.5
2015-Feb-27 02:30N 37°33' E 025°48'6 6.5
2015-Feb-27 01:33N 37°29' E 025°54'7 6.7
2015-Feb-27 00:32N 37°25' E 026°00'348 7.8
2015-Feb-25 04:03N 34°36' E 032°16'14 8.7
2015-Feb-25 02:29N 34°29' E 032°31'8 9.0
2015-Feb-25 01:33N 34°29' E 032°41'9 8.7
2015-Feb-25 00:33N 34°29' E 032°51'8 8.1
2015-Feb-24 23:33N 34°29' E 033°01'8 7.9
2015-Feb-24 22:33N 34°29' E 033°11'8 7.9
2015-Feb-24 21:33N 34°29' E 033°20'8 7.7
2015-Feb-24 20:33N 34°28' E 033°30'  
Track history (hours):
 
Tides and Currents Weather Stations Pressure Air Temp Water Temp Dewpoint Dewpoint Depression Visibility Wind Speed Wind Dir Waves Ship Positions

Clipper Titan

Last reported at 2015-Feb-27 03:24 UTC. Time now 2015-Feb-27 07:34 UTC.
Position N 37°37' E 025°43'.

; draft 7.1 m.

Type: Cargo ship. MMSI: 311008200.

Date/timePositionNaut miles runAvg speedWind from/ knotsBaromVisibWave heightAir tempDewpointWater temp
2015-Feb-27 03:24N 37°37' E 025°43'6 6.5
2015-Feb-27 02:30N 37°33' E 025°48'6 6.5
2015-Feb-27 01:33N 37°29' E 025°54'7 6.7
2015-Feb-27 00:32N 37°25' E 026°00'348 7.8
2015-Feb-25 04:03N 34°36' E 032°16'14 8.7
2015-Feb-25 02:29N 34°29' E 032°31'8 9.0
2015-Feb-25 01:33N 34°29' E 032°41'9 8.7
2015-Feb-25 00:33N 34°29' E 032°51'8 8.1
2015-Feb-24 23:33N 34°29' E 033°01'8 7.9
2015-Feb-24 22:33N 34°29' E 033°11'8 7.9
2015-Feb-24 21:33N 34°29' E 033°20'8 7.7
2015-Feb-24 20:33N 34°28' E 033°30'  

Dump ship's entire track history